Terminal Aerodrome Forecast
Issued by NWS

Home | Current Version | Previous Version | Text Only | Print | Product List | Glossary Off
Versions: 1 2 3 4 5 6 7 8 9 10 11 12 13 14 15 16 17 18 19 20 21 22 23 24 25 26 27

000
FTUS43 KBIS 260500
TAFMOT
TAF
KMOT 260540Z 2606/2706 30011KT P6SM SCT015 OVC025
      TEMPO 2606/2608 FEW020
     FM260800 32009KT P6SM BKN011 OVC025
      TEMPO 2612/2614 SCT015 BKN035
     FM261600 32006KT P6SM SCT035 BKN150=

USA.gov is the U.S. government's official web portal to all federal, state and local government web resources and services.